createdAt,value
2017-12-13T00:01:58.884Z,98206.75
2017-12-13T00:04:26.405Z,98207.94
2017-12-13T00:06:53.914Z,98212.33
2017-12-13T00:09:21.435Z,98211.60
2017-12-13T00:11:48.940Z,98205.30
2017-12-13T00:14:16.466Z,98209.08
2017-12-13T00:16:43.993Z,98201.05
2017-12-13T00:19:11.761Z,98212.20
2017-12-13T00:21:39.288Z,98201.95
2017-12-13T00:24:06.904Z,98202.56
2017-12-13T00:26:34.520Z,98199.31
2017-12-13T00:29:02.054Z,98202.47
2017-12-13T00:31:29.581Z,98205.53
2017-12-13T00:33:57.124Z,98204.19
2017-12-13T00:36:24.628Z,98198.06
2017-12-13T00:38:52.164Z,98198.11
2017-12-13T00:41:19.704Z,98199.77
2017-12-13T00:43:47.239Z,98203.16
2017-12-13T00:46:14.773Z,98210.10
2017-12-13T00:48:42.289Z,98199.18
2017-12-13T00:51:09.795Z,98190.99
2017-12-13T00:53:37.313Z,98194.66
2017-12-13T00:56:04.830Z,98202.46
2017-12-13T00:58:32.354Z,98196.88
2017-12-13T01:00:59.854Z,98211.38
2017-12-13T01:03:28.255Z,98208.66
2017-12-13T01:05:55.811Z,98208.52
2017-12-13T01:08:23.345Z,98216.87
2017-12-13T01:10:50.879Z,98216.38
2017-12-13T01:13:18.397Z,98209.67
2017-12-13T01:15:45.919Z,98213.73
2017-12-13T01:18:13.454Z,98218.41
2017-12-13T01:20:40.999Z,98219.00
2017-12-13T01:23:08.530Z,98208.49
2017-12-13T01:25:36.040Z,98213.07
2017-12-13T01:28:03.580Z,98210.72
2017-12-13T01:30:31.116Z,98211.72
2017-12-13T01:32:58.624Z,98212.63
2017-12-13T01:35:26.135Z,98215.55
2017-12-13T01:37:53.656Z,98223.39
2017-12-13T01:40:21.186Z,98223.09
2017-12-13T01:42:48.704Z,98217.67
2017-12-13T01:45:16.325Z,98225.63
2017-12-13T01:47:43.855Z,98222.69
2017-12-13T01:50:11.379Z,98224.16
2017-12-13T01:52:38.874Z,98223.59
2017-12-13T01:55:06.424Z,98228.48
2017-12-13T01:57:33.946Z,98226.88
2017-12-13T02:00:01.461Z,98226.58
2017-12-13T02:02:28.957Z,98239.20
2017-12-13T02:04:56.461Z,98234.29
2017-12-13T02:07:24.021Z,98233.47
2017-12-13T02:09:51.546Z,98233.13
2017-12-13T02:12:19.084Z,98228.10
2017-12-13T02:14:46.992Z,98223.02
2017-12-13T02:17:14.531Z,98221.24
2017-12-13T02:19:42.221Z,98224.47
2017-12-13T02:22:09.730Z,98218.41
2017-12-13T02:24:37.250Z,98222.06
2017-12-13T02:27:04.764Z,98223.73
2017-12-13T02:29:32.309Z,98225.92
2017-12-13T02:31:59.826Z,98228.52
2017-12-13T02:34:27.336Z,98228.17
2017-12-13T02:36:54.895Z,98224.90
2017-12-13T02:39:22.439Z,98227.61
2017-12-13T02:41:49.941Z,98231.28
2017-12-13T02:44:17.693Z,98215.86
2017-12-13T02:46:45.210Z,98219.13
2017-12-13T02:49:12.725Z,98219.09
2017-12-13T02:51:40.287Z,98213.97
2017-12-13T02:54:07.801Z,98210.33
2017-12-13T02:56:35.322Z,98210.63
2017-12-13T02:59:02.833Z,98205.67
2017-12-13T03:01:30.345Z,98199.94
2017-12-13T03:03:57.855Z,98209.72
2017-12-13T03:06:25.386Z,98200.06
2017-12-13T03:08:52.882Z,98200.64
2017-12-13T03:11:20.418Z,98204.42
2017-12-13T03:13:47.961Z,98198.53
2017-12-13T03:16:15.578Z,98203.66
2017-12-13T03:18:43.115Z,98205.33
2017-12-13T03:21:10.639Z,98203.21
2017-12-13T03:23:38.225Z,98196.61
2017-12-13T03:26:05.755Z,98197.50
2017-12-13T03:28:33.290Z,98198.52
2017-12-13T03:31:00.806Z,98194.03
2017-12-13T03:33:28.381Z,98204.16
2017-12-13T03:35:55.875Z,98199.31
2017-12-13T03:38:23.395Z,98211.24
2017-12-13T03:40:50.935Z,98207.55
2017-12-13T03:43:18.481Z,98202.42
2017-12-13T03:45:46.027Z,98199.38
2017-12-13T03:48:13.547Z,98191.17
2017-12-13T03:50:41.085Z,98200.78
2017-12-13T03:53:08.590Z,98191.62
2017-12-13T03:55:36.181Z,98187.61
2017-12-13T03:58:03.737Z,98187.11
2017-12-13T04:00:31.240Z,98173.03
2017-12-13T04:02:58.785Z,98173.53
2017-12-13T04:05:26.311Z,98178.27
2017-12-13T04:07:53.853Z,98175.58
2017-12-13T04:10:21.367Z,98174.03
2017-12-13T04:12:48.934Z,98168.95
2017-12-13T04:15:16.490Z,98166.62
2017-12-13T04:17:44.010Z,98162.94
2017-12-13T04:20:11.500Z,98156.11
2017-12-13T04:22:38.996Z,98161.18
2017-12-13T04:25:06.545Z,98160.34
2017-12-13T04:27:34.055Z,98152.92
2017-12-13T04:30:01.586Z,98151.61
2017-12-13T04:32:29.096Z,98149.20
2017-12-13T04:34:56.604Z,98149.00
2017-12-13T04:37:24.140Z,98146.31
2017-12-13T04:39:51.689Z,98152.37
2017-12-13T04:42:19.178Z,98149.87
2017-12-13T04:44:46.696Z,98143.41
2017-12-13T04:47:14.232Z,98146.13
2017-12-13T04:49:41.795Z,98157.70
2017-12-13T04:52:09.316Z,98154.50
2017-12-13T04:54:36.838Z,98155.31
2017-12-13T04:57:04.340Z,98148.13
2017-12-13T04:59:31.852Z,98140.98
2017-12-13T05:01:59.372Z,98132.59
2017-12-13T05:04:26.892Z,98130.19
2017-12-13T05:06:54.451Z,98135.20
2017-12-13T05:09:21.951Z,98127.64
2017-12-13T05:11:49.598Z,98130.28
2017-12-13T05:14:17.092Z,98130.29
2017-12-13T05:16:44.608Z,98132.52
2017-12-13T05:19:12.180Z,98124.69
2017-12-13T05:21:39.706Z,98123.89
2017-12-13T05:24:07.231Z,98128.94
2017-12-13T05:26:34.747Z,98129.00
2017-12-13T05:29:02.271Z,98130.82
2017-12-13T05:31:29.865Z,98133.17
2017-12-13T05:33:57.388Z,98129.62
2017-12-13T05:36:24.931Z,98127.16
2017-12-13T05:38:52.606Z,98123.84
2017-12-13T05:41:20.122Z,98124.22
2017-12-13T05:43:47.643Z,98119.58
2017-12-13T05:46:15.154Z,98121.81
2017-12-13T05:48:42.931Z,98119.68
2017-12-13T05:51:10.643Z,98122.12
2017-12-13T05:53:38.157Z,98122.92
2017-12-13T05:56:05.697Z,98115.78
2017-12-13T05:58:33.207Z,98120.15
2017-12-13T06:01:00.731Z,98120.00
2017-12-13T06:03:28.256Z,98117.91
2017-12-13T06:05:55.752Z,98110.21
2017-12-13T06:08:23.301Z,98110.81
2017-12-13T06:10:50.830Z,98107.57
2017-12-13T06:13:18.351Z,98107.03
2017-12-13T06:15:45.877Z,98106.85
2017-12-13T06:18:13.377Z,98111.83
2017-12-13T06:20:40.893Z,98113.33
2017-12-13T06:23:08.416Z,98123.12
2017-12-13T06:25:35.938Z,98120.55
2017-12-13T06:28:03.511Z,98108.58
2017-12-13T06:30:31.040Z,98110.27
2017-12-13T06:32:58.555Z,98111.78
2017-12-13T06:35:26.102Z,98109.26
2017-12-13T06:37:53.618Z,98108.98
2017-12-13T06:40:21.168Z,98111.75
2017-12-13T06:42:48.721Z,98104.26
2017-12-13T06:45:16.249Z,98100.02
2017-12-13T06:47:43.777Z,98103.30
2017-12-13T06:50:11.313Z,98098.65
2017-12-13T06:52:38.833Z,98094.87
2017-12-13T06:55:06.351Z,98088.24
2017-12-13T06:57:33.861Z,98078.94
2017-12-13T07:00:01.391Z,98077.73
2017-12-13T07:02:28.999Z,98069.81
2017-12-13T07:04:56.532Z,98071.58
2017-12-13T07:07:24.051Z,98070.52
2017-12-13T07:09:51.584Z,98058.22
2017-12-13T07:12:19.101Z,98061.67
2017-12-13T07:14:46.636Z,98070.73
2017-12-13T07:17:14.148Z,98063.39
2017-12-13T07:19:41.652Z,98051.02
2017-12-13T07:22:09.156Z,98053.26
2017-12-13T07:24:36.713Z,98052.77
2017-12-13T07:27:04.236Z,98047.39
2017-12-13T07:29:31.768Z,98042.19
2017-12-13T07:31:59.313Z,98044.24
2017-12-13T07:34:26.831Z,98048.50
2017-12-13T07:36:54.363Z,98051.19
2017-12-13T07:39:21.922Z,98049.72
2017-12-13T07:41:49.414Z,98051.75
2017-12-13T07:44:16.932Z,98042.92
2017-12-13T07:46:44.468Z,98039.59
2017-12-13T07:49:11.998Z,98041.81
2017-12-13T07:51:39.532Z,98035.08
2017-12-13T07:54:07.053Z,98040.30
2017-12-13T07:56:34.568Z,98030.81
2017-12-13T07:59:02.107Z,98027.29
2017-12-13T08:01:29.652Z,98030.47
2017-12-13T08:03:57.162Z,98030.63
2017-12-13T08:06:24.699Z,98026.52
2017-12-13T08:08:52.207Z,98020.78
2017-12-13T08:11:19.724Z,98015.05
2017-12-13T08:13:47.271Z,98019.55
2017-12-13T08:16:14.793Z,98008.06
2017-12-13T08:18:42.316Z,98014.42
2017-12-13T08:21:10.037Z,98006.63
2017-12-13T08:23:37.544Z,97999.98
2017-12-13T08:26:05.069Z,97995.38
2017-12-13T08:28:32.638Z,97990.38
2017-12-13T08:31:00.176Z,97993.16
2017-12-13T08:33:27.723Z,97990.02
2017-12-13T08:35:55.249Z,97989.57
2017-12-13T08:38:22.783Z,97978.12
2017-12-13T08:40:50.365Z,97980.40
2017-12-13T08:43:17.894Z,97977.23
2017-12-13T08:45:45.463Z,97968.16
2017-12-13T08:48:13.002Z,97963.36
2017-12-13T08:50:40.533Z,97962.70
2017-12-13T08:53:08.056Z,97957.44
2017-12-13T08:55:35.584Z,97937.92
2017-12-13T08:58:03.168Z,97933.38
2017-12-13T09:00:30.697Z,97935.45
2017-12-13T09:02:58.234Z,97927.03
2017-12-13T09:05:25.751Z,97915.64
2017-12-13T09:07:53.277Z,97912.89
2017-12-13T09:10:21.002Z,97910.20
2017-12-13T09:12:48.529Z,97914.66
2017-12-13T09:15:16.093Z,97905.05
2017-12-13T09:17:43.607Z,97904.09
2017-12-13T09:20:11.128Z,97900.22
2017-12-13T09:22:38.814Z,97897.02
2017-12-13T09:25:06.462Z,97883.94
2017-12-13T09:27:34.007Z,97886.16
2017-12-13T09:30:01.584Z,97887.45
2017-12-13T09:32:29.104Z,97881.83
2017-12-13T09:34:56.613Z,97887.86
2017-12-13T09:37:24.116Z,97878.38
2017-12-13T09:39:51.644Z,97875.72
2017-12-13T09:42:19.182Z,97864.89
2017-12-13T09:44:46.718Z,97859.97
2017-12-13T09:47:14.229Z,97857.03
2017-12-13T09:49:41.754Z,97859.52
2017-12-13T09:52:09.268Z,97852.17
2017-12-13T09:54:36.797Z,97836.92
2017-12-13T09:57:04.339Z,97829.65
2017-12-13T09:59:31.863Z,97821.30
2017-12-13T10:01:59.395Z,97806.55
2017-12-13T10:04:26.924Z,97804.16
2017-12-13T10:06:54.463Z,97806.56
2017-12-13T10:09:21.974Z,97788.13
2017-12-13T10:11:49.494Z,97783.37
2017-12-13T10:14:17.008Z,97763.70
2017-12-13T10:16:44.549Z,97750.00
2017-12-13T10:19:12.070Z,97742.43
2017-12-13T10:21:39.602Z,97735.48
2017-12-13T10:24:07.172Z,97728.03
2017-12-13T10:26:34.838Z,97725.48
2017-12-13T10:29:02.363Z,97713.02
2017-12-13T10:31:29.874Z,97698.40
2017-12-13T10:33:57.389Z,97692.11
2017-12-13T10:36:24.938Z,97688.68
2017-12-13T10:38:52.467Z,97679.02
2017-12-13T10:41:20.020Z,97690.77
2017-12-13T10:43:47.579Z,97668.85
2017-12-13T10:46:15.104Z,97673.33
2017-12-13T10:48:42.641Z,97662.93
2017-12-13T10:51:10.173Z,97656.62
2017-12-13T10:53:37.689Z,97651.84
2017-12-13T10:56:05.224Z,97641.66
2017-12-13T10:58:32.750Z,97645.69
2017-12-13T11:01:00.299Z,97643.36
2017-12-13T11:03:27.838Z,97644.72
2017-12-13T11:05:55.348Z,97642.55
2017-12-13T11:08:22.880Z,97651.45
2017-12-13T11:10:50.388Z,97637.16
2017-12-13T11:13:17.949Z,97629.34
2017-12-13T11:15:45.440Z,97618.83
2017-12-13T11:18:12.953Z,97596.91
2017-12-13T11:20:40.480Z,97599.61
2017-12-13T11:23:08.038Z,97584.52
2017-12-13T11:25:35.573Z,97575.05
2017-12-13T11:28:03.080Z,97587.46
2017-12-13T11:30:30.590Z,97567.20
2017-12-13T11:32:58.097Z,97565.80
2017-12-13T11:35:25.618Z,97563.94
2017-12-13T11:37:53.180Z,97559.71
2017-12-13T11:40:20.713Z,97548.00
2017-12-13T11:42:48.228Z,97548.29
2017-12-13T11:45:15.763Z,97539.66
2017-12-13T11:47:43.305Z,97539.84
2017-12-13T11:50:10.814Z,97524.84
2017-12-13T11:52:38.370Z,97515.73
2017-12-13T11:55:05.898Z,97508.03
2017-12-13T11:57:33.432Z,97502.28
2017-12-13T12:00:00.954Z,97497.92
2017-12-13T12:02:28.460Z,97470.19
2017-12-13T12:04:55.979Z,97464.39
2017-12-13T12:07:23.494Z,97465.33
2017-12-13T12:09:51.000Z,97470.83
2017-12-13T12:12:18.513Z,97463.11
2017-12-13T12:14:46.019Z,97458.22
2017-12-13T12:17:14.599Z,97460.60
2017-12-13T12:19:42.128Z,97441.00
2017-12-13T12:22:09.686Z,97430.56
2017-12-13T12:24:37.214Z,97435.27
2017-12-13T12:27:04.729Z,97423.13
2017-12-13T12:29:32.289Z,97420.60
2017-12-13T12:31:59.814Z,97403.24
2017-12-13T12:34:27.513Z,97395.51
2017-12-13T12:36:55.059Z,97382.91
2017-12-13T12:39:22.574Z,97386.20
2017-12-13T12:41:50.104Z,97382.68
2017-12-13T12:44:17.629Z,97371.59
2017-12-13T12:46:45.163Z,97370.55
2017-12-13T12:49:12.664Z,97363.47
2017-12-13T12:51:40.186Z,97350.98
2017-12-13T12:54:07.730Z,97345.76
2017-12-13T12:56:35.250Z,97333.81
2017-12-13T12:59:02.771Z,97326.14
2017-12-13T13:01:30.293Z,97330.41
2017-12-13T13:03:57.796Z,97314.12
2017-12-13T13:06:25.310Z,97304.63
2017-12-13T13:08:52.848Z,97290.17
2017-12-13T13:11:20.403Z,97289.00
2017-12-13T13:13:47.923Z,97271.33
2017-12-13T13:16:15.428Z,97279.23
2017-12-13T13:18:42.961Z,97271.23
2017-12-13T13:21:10.479Z,97262.42
2017-12-13T13:23:38.016Z,97244.53
2017-12-13T13:26:05.521Z,97232.75
2017-12-13T13:28:33.071Z,97234.02
2017-12-13T13:31:00.584Z,97229.63
2017-12-13T13:33:28.114Z,97242.35
2017-12-13T13:35:55.640Z,97237.98
2017-12-13T13:38:23.157Z,97242.43
2017-12-13T13:40:50.676Z,97229.90
2017-12-13T13:43:18.211Z,97214.97
2017-12-13T13:45:45.862Z,97221.26
2017-12-13T13:48:13.373Z,97211.07
2017-12-13T13:50:40.902Z,97198.13
2017-12-13T13:53:08.420Z,97208.39
2017-12-13T13:55:36.060Z,97202.28
2017-12-13T13:58:03.573Z,97198.14
2017-12-13T14:00:31.117Z,97200.02
2017-12-13T14:02:58.664Z,97180.58
2017-12-13T14:05:26.173Z,97170.44
2017-12-13T14:07:53.686Z,97155.19
2017-12-13T14:10:21.209Z,97160.34
2017-12-13T14:12:48.720Z,97157.22
2017-12-13T14:15:16.286Z,97153.60
2017-12-13T14:17:43.823Z,97146.52
2017-12-13T14:20:11.330Z,97142.11
2017-12-13T14:22:38.863Z,97145.66
2017-12-13T14:25:06.375Z,97138.36
2017-12-13T14:27:33.882Z,97129.58
2017-12-13T14:30:01.401Z,97124.10
2017-12-13T14:32:28.916Z,97119.33
2017-12-13T14:34:56.436Z,97125.44
2017-12-13T14:37:23.944Z,97116.70
2017-12-13T14:39:51.485Z,97109.59
2017-12-13T14:42:19.014Z,97117.78
2017-12-13T14:44:46.570Z,97110.13
2017-12-13T14:47:14.120Z,97114.92
2017-12-13T14:49:41.671Z,97107.99
2017-12-13T14:52:09.215Z,97119.31
2017-12-13T14:54:36.744Z,97110.23
2017-12-13T14:57:04.338Z,97102.19
2017-12-13T14:59:31.848Z,97097.30
2017-12-13T15:01:59.391Z,97094.00
2017-12-13T15:04:26.916Z,97085.25
2017-12-13T15:06:54.436Z,97086.89
2017-12-13T15:09:21.939Z,97095.41
2017-12-13T15:11:49.455Z,97080.47
2017-12-13T15:14:16.974Z,97097.28
2017-12-13T15:16:44.531Z,97090.94
2017-12-13T15:19:12.049Z,97084.99
2017-12-13T15:21:39.565Z,97070.74
2017-12-13T15:24:07.079Z,97066.95
2017-12-13T15:26:34.681Z,97068.00
2017-12-13T15:29:02.210Z,97063.70
2017-12-13T15:31:29.735Z,97055.61
2017-12-13T15:33:57.326Z,97057.35
2017-12-13T15:36:24.884Z,97055.67
2017-12-13T15:38:52.406Z,97046.63
2017-12-13T15:41:19.936Z,97039.36
2017-12-13T15:43:47.457Z,97050.77
2017-12-13T15:46:14.972Z,97035.83
2017-12-13T15:48:42.549Z,97030.07
2017-12-13T15:51:10.059Z,97028.97
2017-12-13T15:53:37.764Z,97024.07
2017-12-13T15:56:05.330Z,97025.76
2017-12-13T15:58:32.875Z,97015.72
2017-12-13T16:01:00.394Z,97009.13
2017-12-13T16:03:27.902Z,97011.08
2017-12-13T16:05:55.436Z,97024.95
2017-12-13T16:08:22.965Z,97010.86
2017-12-13T16:10:50.482Z,97008.99
2017-12-13T16:13:18.011Z,97005.06
2017-12-13T16:15:45.701Z,97015.13
2017-12-13T16:18:13.219Z,96997.31
2017-12-13T16:20:40.802Z,97005.22
2017-12-13T16:23:08.286Z,96994.27
2017-12-13T16:25:35.821Z,96995.07
2017-12-13T16:28:03.371Z,97002.48
2017-12-13T16:30:30.892Z,96992.56
2017-12-13T16:32:58.413Z,96988.56
2017-12-13T16:35:25.945Z,96984.21
2017-12-13T16:37:53.472Z,96975.84
2017-12-13T16:40:21.090Z,96968.08
2017-12-13T16:42:48.640Z,96968.53
2017-12-13T16:45:16.160Z,96963.81
2017-12-13T16:47:43.709Z,96955.42
2017-12-13T16:50:11.248Z,96948.44
2017-12-13T16:52:38.775Z,96945.98
2017-12-13T16:55:06.307Z,96950.95
2017-12-13T16:57:33.855Z,96953.92
2017-12-13T17:00:01.376Z,96949.19
2017-12-13T17:02:28.883Z,96942.15
2017-12-13T17:04:56.401Z,96941.32
2017-12-13T17:07:23.931Z,96939.17
2017-12-13T17:09:51.459Z,96934.45
2017-12-13T17:12:19.050Z,96930.89
2017-12-13T17:14:46.555Z,96941.58
2017-12-13T17:17:14.117Z,96937.73
2017-12-13T17:19:41.673Z,96930.14
2017-12-13T17:22:09.204Z,96927.00
2017-12-13T17:24:36.720Z,96930.91
2017-12-13T17:27:04.314Z,96915.48
2017-12-13T17:29:31.855Z,96920.58
2017-12-13T17:31:59.370Z,96919.64
2017-12-13T17:34:26.889Z,96917.52
2017-12-13T17:36:54.419Z,96911.72
2017-12-13T17:39:21.931Z,96916.30
2017-12-13T17:41:49.437Z,96903.86
2017-12-13T17:44:16.977Z,96907.30
2017-12-13T17:46:44.535Z,96906.52
2017-12-13T17:49:12.064Z,96895.41
2017-12-13T17:51:39.690Z,96895.92
2017-12-13T17:54:07.206Z,96894.95
2017-12-13T17:56:34.737Z,96882.63
2017-12-13T17:59:02.255Z,96881.45
2017-12-13T18:01:29.829Z,96881.83
2017-12-13T18:03:57.381Z,96863.11
2017-12-13T18:06:24.901Z,96862.78
2017-12-13T18:08:52.430Z,96858.03
2017-12-13T18:11:20.069Z,96863.65
2017-12-13T18:13:47.593Z,96860.53
2017-12-13T18:16:15.132Z,96845.22
2017-12-13T18:18:42.668Z,96844.78
2017-12-13T18:21:10.201Z,96839.94
2017-12-13T18:23:37.740Z,96839.45
2017-12-13T18:26:05.286Z,96829.78
2017-12-13T18:28:32.837Z,96825.47
2017-12-13T18:31:00.342Z,96812.49
2017-12-13T18:33:27.876Z,96818.97
2017-12-13T18:35:55.393Z,96811.44
2017-12-13T18:38:22.915Z,96800.52
2017-12-13T18:40:50.480Z,96790.13
2017-12-13T18:43:18.000Z,96789.08
2017-12-13T18:45:45.523Z,96788.86
2017-12-13T18:48:13.042Z,96785.13
2017-12-13T18:50:40.577Z,96779.38
2017-12-13T18:53:08.122Z,96768.04
2017-12-13T18:55:35.689Z,96767.39
2017-12-13T18:58:03.328Z,96762.13
2017-12-13T19:00:30.847Z,96758.82
2017-12-13T19:02:58.495Z,96747.99
2017-12-13T19:05:26.045Z,96723.05
2017-12-13T19:07:53.595Z,96724.77
2017-12-13T19:10:21.132Z,96700.66
2017-12-13T19:12:48.691Z,96671.06
2017-12-13T19:15:16.220Z,96622.88
2017-12-13T19:17:43.758Z,96587.52
2017-12-13T19:20:11.313Z,96578.05
2017-12-13T19:22:38.827Z,96608.02
2017-12-13T19:25:06.400Z,96633.82
2017-12-13T19:27:33.946Z,96646.33
2017-12-13T19:30:01.506Z,96657.03
2017-12-13T19:32:29.047Z,96660.95
2017-12-13T19:34:56.580Z,96665.73
2017-12-13T19:37:24.103Z,96655.81
2017-12-13T19:39:51.627Z,96650.19
2017-12-13T19:42:19.210Z,96632.30
2017-12-13T19:44:46.729Z,96616.64
2017-12-13T19:47:14.405Z,96619.13
2017-12-13T19:49:41.963Z,96618.29
2017-12-13T19:52:09.510Z,96604.14
2017-12-13T19:54:37.071Z,96604.51
2017-12-13T19:57:04.607Z,96603.55
2017-12-13T19:59:32.149Z,96596.55
2017-12-13T20:01:59.700Z,96585.71
2017-12-13T20:04:27.256Z,96577.91
2017-12-13T20:06:54.812Z,96575.02
2017-12-13T20:09:22.356Z,96575.45
2017-12-13T20:11:49.901Z,96575.66
2017-12-13T20:14:17.456Z,96583.55
2017-12-13T20:16:44.980Z,96579.77
2017-12-13T20:19:12.520Z,96576.06
2017-12-13T20:21:40.055Z,96564.46
2017-12-13T20:24:07.606Z,96563.52
2017-12-13T20:26:35.140Z,96545.48
2017-12-13T20:29:02.675Z,96517.63
2017-12-13T20:31:30.202Z,96515.50
2017-12-13T20:33:57.724Z,96507.37
2017-12-13T20:36:25.280Z,96501.23
2017-12-13T20:38:52.800Z,96496.64
2017-12-13T20:41:20.330Z,96490.20
2017-12-13T20:43:47.871Z,96482.35
2017-12-13T20:46:15.529Z,96467.08
2017-12-13T20:48:43.034Z,96442.91
2017-12-13T20:51:10.564Z,96424.56
2017-12-13T20:53:38.081Z,96419.81
2017-12-13T20:56:05.672Z,96398.20
2017-12-13T20:58:33.210Z,96374.67
2017-12-13T21:01:00.886Z,96361.89
2017-12-13T21:03:28.459Z,96353.69
2017-12-13T21:05:55.974Z,96342.91
2017-12-13T21:08:23.491Z,96348.91
2017-12-13T21:10:51.026Z,96340.69
2017-12-13T21:13:18.577Z,96329.67
2017-12-13T21:15:46.106Z,96330.95
2017-12-13T21:18:13.639Z,96330.03
2017-12-13T21:20:41.168Z,96322.59
2017-12-13T21:23:08.690Z,96331.17
2017-12-13T21:25:36.214Z,96314.39
2017-12-13T21:28:03.754Z,96280.38
2017-12-13T21:30:31.281Z,96266.55
2017-12-13T21:32:58.808Z,96264.87
2017-12-13T21:35:26.336Z,96255.94
2017-12-13T21:37:53.865Z,96275.03
2017-12-13T21:40:21.396Z,96265.22
2017-12-13T21:42:48.951Z,96266.20
2017-12-13T21:45:16.483Z,96262.40
2017-12-13T21:47:43.997Z,96259.68
2017-12-13T21:50:11.522Z,96238.27
2017-12-13T21:52:39.023Z,96246.77
2017-12-13T21:55:06.581Z,96247.95
2017-12-13T21:57:34.096Z,96237.60
2017-12-13T22:00:01.616Z,96234.91
2017-12-13T22:02:29.163Z,96217.42
2017-12-13T22:04:56.726Z,96216.61
2017-12-13T22:07:24.261Z,96203.77
2017-12-13T22:09:51.824Z,96215.66
2017-12-13T22:12:19.346Z,96208.89
2017-12-13T22:14:46.856Z,96191.86
2017-12-13T22:17:14.403Z,96192.41
2017-12-13T22:19:41.940Z,96189.87
2017-12-13T22:22:09.446Z,96189.72
2017-12-13T22:24:37.031Z,96176.20
2017-12-13T22:27:04.582Z,96168.02
2017-12-13T22:29:32.114Z,96171.64
2017-12-13T23:12:12.992Z,96098.86
2017-12-13T23:14:40.524Z,96095.78
2017-12-13T23:17:08.052Z,96095.71
2017-12-13T23:19:35.589Z,96093.36
2017-12-13T23:22:03.102Z,96097.84
2017-12-13T23:24:30.602Z,96082.48
2017-12-13T23:26:58.132Z,96077.80
2017-12-13T23:29:25.654Z,96082.41
2017-12-13T23:31:53.207Z,96079.73
2017-12-13T23:34:20.730Z,96086.49
2017-12-13T23:36:48.269Z,96083.09
2017-12-13T23:39:15.782Z,96071.20
2017-12-13T23:41:43.286Z,96063.31
2017-12-13T23:44:10.813Z,96078.22
2017-12-13T23:46:38.422Z,96061.73
2017-12-13T23:49:05.925Z,96069.52
2017-12-13T23:51:33.458Z,96067.64
2017-12-13T23:54:00.968Z,96062.68
2017-12-13T23:56:28.477Z,96060.86
2017-12-13T23:58:55.978Z,96066.98
